createdAt,value
2023-04-07T00:02:02.347Z,84.75
2023-04-07T00:04:29.185Z,84.80
2023-04-07T00:06:56.094Z,84.96
2023-04-07T00:09:22.675Z,84.96
2023-04-07T00:11:49.132Z,84.89
2023-04-07T00:14:15.573Z,84.78
2023-04-07T00:16:42.171Z,84.73
2023-04-07T00:19:08.732Z,85.07
2023-04-07T00:21:35.311Z,85.08
2023-04-07T00:24:01.879Z,84.94
2023-04-07T00:26:31.419Z,84.77
2023-04-07T00:28:59.110Z,84.70
2023-04-07T00:31:25.830Z,84.98
2023-04-07T00:33:54.265Z,85.35
2023-04-07T00:36:21.325Z,85.04
2023-04-07T00:38:47.768Z,85.27
2023-04-07T00:41:14.318Z,85.36
2023-04-07T00:43:40.848Z,84.57
2023-04-07T00:46:07.513Z,84.51
2023-04-07T00:48:34.311Z,84.07
2023-04-07T00:51:00.856Z,84.25
2023-04-07T00:53:27.488Z,83.93
2023-04-07T00:55:54.145Z,83.70
2023-04-07T00:58:20.703Z,83.62
2023-04-07T01:00:57.118Z,83.64
2023-04-07T01:03:34.099Z,83.21
2023-04-07T01:06:02.476Z,82.94
2023-04-07T01:08:28.901Z,83.18
2023-04-07T01:11:22.424Z,83.02
2023-04-07T01:13:50.814Z,82.93
2023-04-07T01:16:39.807Z,82.96
2023-04-07T01:19:39.400Z,83.02
2023-04-07T01:22:14.372Z,83.03
2023-04-07T01:25:18.817Z,82.63
2023-04-07T01:28:04.036Z,82.83
2023-04-07T01:30:33.330Z,82.64
2023-04-07T01:33:00.393Z,82.77
2023-04-07T01:35:28.119Z,82.77
2023-04-07T01:37:56.062Z,82.87
2023-04-07T01:40:22.919Z,82.61
2023-04-07T01:42:50.276Z,82.98
2023-04-07T01:45:17.457Z,83.16
2023-04-07T01:47:44.342Z,82.99
2023-04-07T01:50:12.172Z,82.91
2023-04-07T01:52:40.086Z,82.96
2023-04-07T01:55:07.341Z,82.41
2023-04-07T01:57:37.960Z,82.30
2023-04-07T02:00:12.248Z,82.62
2023-04-07T02:02:55.860Z,82.63
2023-04-07T02:05:22.802Z,82.20
2023-04-07T02:07:56.055Z,82.03
2023-04-07T02:10:24.589Z,81.99
2023-04-07T02:12:52.930Z,81.84
2023-04-07T02:15:20.911Z,81.52
2023-04-07T02:17:52.998Z,81.37
2023-04-07T02:20:20.487Z,81.59
2023-04-07T02:22:47.977Z,81.31
2023-04-07T02:25:28.023Z,81.42
2023-04-07T02:27:55.539Z,81.31
2023-04-07T02:30:22.361Z,81.58
2023-04-07T02:32:50.060Z,81.47
2023-04-07T02:35:16.727Z,81.36
2023-04-07T02:37:44.421Z,81.31
2023-04-07T02:40:11.165Z,80.94
2023-04-07T02:42:37.813Z,81.00
2023-04-07T02:45:05.216Z,81.01
2023-04-07T02:47:32.000Z,80.94
2023-04-07T02:49:58.557Z,80.76
2023-04-07T02:52:25.355Z,81.02
2023-04-07T02:54:53.136Z,81.17
2023-04-07T02:57:23.149Z,80.96
2023-04-07T02:59:52.837Z,80.98
2023-04-07T03:02:19.360Z,81.18
2023-04-07T03:04:46.032Z,81.21
2023-04-07T03:07:12.612Z,81.06
2023-04-07T03:09:40.057Z,81.39
2023-04-07T03:12:06.586Z,80.88
2023-04-07T03:14:36.053Z,80.74
2023-04-07T03:17:03.670Z,80.77
2023-04-07T03:19:30.909Z,80.81
2023-04-07T03:21:57.439Z,81.05
2023-04-07T03:24:23.990Z,80.67
2023-04-07T03:26:51.706Z,80.79
2023-04-07T03:29:25.779Z,80.55
2023-04-07T03:31:52.707Z,80.06
2023-04-07T03:34:23.292Z,80.47
2023-04-07T03:36:49.993Z,80.10
2023-04-07T03:39:16.848Z,80.09
2023-04-07T03:41:44.211Z,80.20
2023-04-07T03:44:11.391Z,80.27
2023-04-07T03:46:38.465Z,79.98
2023-04-07T03:49:06.648Z,80.10
2023-04-07T03:51:34.038Z,80.07
2023-04-07T03:54:02.850Z,79.87
2023-04-07T03:56:33.875Z,79.88
2023-04-07T03:59:00.615Z,79.93
2023-04-07T04:01:34.599Z,79.72
2023-04-07T04:04:07.842Z,79.99
2023-04-07T04:06:34.945Z,79.84
2023-04-07T04:09:11.031Z,79.99
2023-04-07T04:11:43.832Z,80.36
2023-04-07T04:14:10.265Z,80.34
2023-04-07T04:16:37.578Z,80.81
2023-04-07T04:19:10.897Z,80.86
2023-04-07T04:21:37.417Z,80.58
2023-04-07T04:24:04.734Z,81.03
2023-04-07T04:26:31.581Z,81.30
2023-04-07T04:29:04.202Z,81.13
2023-04-07T04:31:30.870Z,81.16
2023-04-07T04:33:58.341Z,80.83
2023-04-07T04:36:25.020Z,81.10
2023-04-07T04:38:56.372Z,80.48
2023-04-07T04:41:23.461Z,80.57
2023-04-07T04:43:51.038Z,80.51
2023-04-07T04:46:21.944Z,80.68
2023-04-07T04:48:49.583Z,80.53
2023-04-07T04:51:17.518Z,80.20
2023-04-07T04:53:47.915Z,80.32
2023-04-07T04:56:14.536Z,80.65
2023-04-07T04:58:46.752Z,80.34
2023-04-07T05:01:38.314Z,80.45
2023-04-07T05:04:10.488Z,80.53
2023-04-07T05:06:40.478Z,80.35
2023-04-07T05:09:11.044Z,80.30
2023-04-07T05:11:43.808Z,80.52
2023-04-07T05:14:10.844Z,80.60
2023-04-07T05:16:42.360Z,80.52
2023-04-07T05:19:15.313Z,80.32
2023-04-07T05:21:41.998Z,80.29
2023-04-07T05:24:09.617Z,80.33
2023-04-07T05:26:36.940Z,80.28
2023-04-07T05:29:04.974Z,80.47
2023-04-07T05:31:31.581Z,80.41
2023-04-07T05:33:59.855Z,80.32
2023-04-07T05:36:31.684Z,80.38
2023-04-07T05:38:58.213Z,79.96
2023-04-07T05:41:26.946Z,80.28
2023-04-07T05:43:54.793Z,80.32
2023-04-07T05:46:22.822Z,80.40
2023-04-07T05:48:56.403Z,80.41
2023-04-07T05:51:24.774Z,80.18
2023-04-07T05:53:53.417Z,79.67
2023-04-07T05:56:22.920Z,79.93
2023-04-07T05:58:49.337Z,79.40
2023-04-07T06:01:16.828Z,79.58
2023-04-07T06:03:43.408Z,79.42
2023-04-07T06:06:16.767Z,79.14
2023-04-07T06:08:45.337Z,79.14
2023-04-07T06:11:12.690Z,78.98
2023-04-07T06:13:39.134Z,78.99
2023-04-07T06:16:06.500Z,78.85
2023-04-07T06:18:32.980Z,78.80
2023-04-07T06:20:59.387Z,78.74
2023-04-07T06:23:26.159Z,78.83
2023-04-07T06:25:53.168Z,78.80
2023-04-07T06:28:19.764Z,79.06
2023-04-07T06:30:46.813Z,79.12
2023-04-07T06:33:14.725Z,78.97
2023-04-07T06:35:41.346Z,78.93
2023-04-07T06:38:08.080Z,78.75
2023-04-07T06:40:34.494Z,78.68
2023-04-07T06:43:01.270Z,78.61
2023-04-07T06:45:37.092Z,78.70
2023-04-07T06:48:03.651Z,78.63
2023-04-07T06:50:30.165Z,78.38
2023-04-07T06:52:56.652Z,78.34
2023-04-07T06:55:23.108Z,78.40
2023-04-07T06:57:52.179Z,78.02
2023-04-07T07:00:19.012Z,78.27
2023-04-07T07:02:45.706Z,78.05
2023-04-07T07:05:12.746Z,78.39
2023-04-07T07:07:39.166Z,77.91
2023-04-07T07:10:06.796Z,77.87
2023-04-07T07:12:33.419Z,77.84
2023-04-07T07:14:59.811Z,77.59
2023-04-07T07:17:26.496Z,77.43
2023-04-07T07:19:53.000Z,77.18
2023-04-07T07:22:19.524Z,77.20
2023-04-07T07:24:45.964Z,77.12
2023-04-07T07:27:12.366Z,76.99
2023-04-07T07:29:38.790Z,77.17
2023-04-07T07:32:05.612Z,77.22
2023-04-07T07:34:32.713Z,77.18
2023-04-07T07:36:59.829Z,77.22
2023-04-07T07:39:26.787Z,77.40
2023-04-07T07:41:53.252Z,77.67
2023-04-07T07:44:23.631Z,77.43
2023-04-07T07:46:51.373Z,77.64
2023-04-07T07:49:17.925Z,77.46
2023-04-07T07:51:46.070Z,77.91
2023-04-07T07:54:12.780Z,77.98
2023-04-07T07:56:39.235Z,78.07
2023-04-07T07:59:08.540Z,77.97
2023-04-07T08:01:35.066Z,77.94
2023-04-07T08:04:01.613Z,77.73
2023-04-07T08:06:29.187Z,77.63
2023-04-07T08:08:55.856Z,77.61
2023-04-07T08:11:23.033Z,77.51
2023-04-07T08:13:49.785Z,77.51
2023-04-07T08:16:16.643Z,77.67
2023-04-07T08:18:43.168Z,77.48
2023-04-07T08:21:09.665Z,77.52
2023-04-07T08:23:36.315Z,77.34
2023-04-07T08:26:02.751Z,77.32
2023-04-07T08:28:29.224Z,77.33
2023-04-07T08:30:55.685Z,77.31
2023-04-07T08:33:22.222Z,77.07
2023-04-07T08:35:48.795Z,77.39
2023-04-07T08:38:15.371Z,77.40
2023-04-07T08:40:42.733Z,77.25
2023-04-07T08:43:10.305Z,77.27
2023-04-07T08:45:39.709Z,77.23
2023-04-07T08:48:17.751Z,77.34
2023-04-07T08:50:45.650Z,77.35
2023-04-07T08:53:14.684Z,77.57
2023-04-07T08:55:41.917Z,77.41
2023-04-07T08:58:12.330Z,77.41
2023-04-07T09:00:45.771Z,77.47
2023-04-07T09:03:12.386Z,77.54
2023-04-07T09:05:39.030Z,77.65
2023-04-07T09:08:05.577Z,77.67
2023-04-07T09:10:32.217Z,77.73
2023-04-07T09:12:59.499Z,77.66
2023-04-07T09:15:31.042Z,77.55
2023-04-07T09:17:58.505Z,77.49
2023-04-07T09:20:25.650Z,77.33
2023-04-07T09:22:52.144Z,77.28
2023-04-07T09:25:22.625Z,77.33
2023-04-07T09:27:59.625Z,77.58
2023-04-07T09:30:27.289Z,77.68
2023-04-07T09:32:54.125Z,77.79
2023-04-07T09:35:23.029Z,77.58
2023-04-07T09:38:06.871Z,77.39
2023-04-07T09:40:33.878Z,77.30
2023-04-07T09:43:00.545Z,77.21
2023-04-07T09:45:34.594Z,76.52
2023-04-07T09:48:10.782Z,76.08
2023-04-07T09:50:40.005Z,75.91
2023-04-07T09:53:06.993Z,75.54
2023-04-07T09:55:33.885Z,75.32
2023-04-07T09:58:00.842Z,74.97
2023-04-07T10:00:27.356Z,74.59
2023-04-07T10:02:54.238Z,74.28
2023-04-07T10:05:23.582Z,73.90
2023-04-07T10:07:49.987Z,73.90
2023-04-07T10:10:16.593Z,73.66
2023-04-07T10:12:43.233Z,73.38
2023-04-07T10:15:13.226Z,72.69
2023-04-07T10:17:40.937Z,72.35
2023-04-07T10:20:08.435Z,72.56
2023-04-07T10:22:36.018Z,72.74
2023-04-07T10:25:07.152Z,72.63
2023-04-07T10:27:56.527Z,72.65
2023-04-07T10:30:31.604Z,72.64
2023-04-07T10:32:58.809Z,73.02
2023-04-07T10:35:25.834Z,73.32
2023-04-07T10:38:08.033Z,72.96
2023-04-07T10:40:35.579Z,73.24
2023-04-07T10:43:02.438Z,72.99
2023-04-07T10:45:48.296Z,72.66
2023-04-07T10:48:16.472Z,72.56
2023-04-07T10:50:42.946Z,73.04
2023-04-07T10:53:10.526Z,73.30
2023-04-07T10:55:46.617Z,73.28
2023-04-07T10:58:16.851Z,73.03
2023-04-07T11:01:03.557Z,72.94
2023-04-07T11:03:34.886Z,72.73
2023-04-07T11:06:05.092Z,73.19
2023-04-07T11:08:36.242Z,73.59
2023-04-07T11:11:08.893Z,74.05
2023-04-07T11:13:48.886Z,74.37
2023-04-07T11:16:20.103Z,74.95
2023-04-07T11:18:47.858Z,75.14
2023-04-07T11:21:19.123Z,75.88
2023-04-07T11:23:47.498Z,76.45
2023-04-07T11:26:15.929Z,76.82
2023-04-07T11:28:47.227Z,76.87
2023-04-07T11:31:22.022Z,77.60
2023-04-07T11:33:53.720Z,78.03
2023-04-07T11:36:30.845Z,78.52
2023-04-07T11:39:00.573Z,78.75
2023-04-07T11:41:30.334Z,79.29
2023-04-07T11:44:12.746Z,79.48
2023-04-07T11:46:59.770Z,80.10
2023-04-07T11:49:31.702Z,79.99
2023-04-07T11:52:00.739Z,80.00
2023-04-07T11:54:27.210Z,80.05
2023-04-07T11:56:55.806Z,80.38
2023-04-07T11:59:24.326Z,79.91
2023-04-07T12:01:53.002Z,79.75
2023-04-07T12:04:20.976Z,80.03
2023-04-07T12:06:48.502Z,80.02
2023-04-07T12:09:32.441Z,79.21
2023-04-07T12:11:59.252Z,78.87
2023-04-07T12:14:27.705Z,78.83
2023-04-07T12:16:57.505Z,78.97
2023-04-07T12:19:26.629Z,78.90
2023-04-07T12:21:53.106Z,79.07
2023-04-07T12:24:19.632Z,79.13
2023-04-07T12:26:46.119Z,79.45
2023-04-07T12:29:12.585Z,79.59
2023-04-07T12:31:39.050Z,80.09
2023-04-07T12:34:05.595Z,80.07
2023-04-07T12:36:32.151Z,80.26
2023-04-07T12:38:59.017Z,80.16
2023-04-07T12:41:25.780Z,80.19
2023-04-07T12:43:52.687Z,80.17
2023-04-07T12:46:19.837Z,80.05
2023-04-07T12:48:47.750Z,79.73
2023-04-07T12:51:14.220Z,79.68
2023-04-07T12:53:40.654Z,79.93
2023-04-07T12:56:07.312Z,79.83
2023-04-07T12:58:34.315Z,79.56
2023-04-07T13:01:00.796Z,79.37
2023-04-07T13:03:27.589Z,78.66
2023-04-07T13:05:55.255Z,77.98
2023-04-07T13:08:22.031Z,77.34
2023-04-07T13:10:48.672Z,76.68
2023-04-07T13:13:15.473Z,76.94
2023-04-07T13:15:41.957Z,76.78
2023-04-07T13:18:08.529Z,76.67
2023-04-07T13:20:34.975Z,76.67
2023-04-07T13:23:07.829Z,76.33
2023-04-07T13:25:36.446Z,76.25
2023-04-07T13:28:03.184Z,76.45
2023-04-07T13:30:29.651Z,75.99
2023-04-07T13:32:56.172Z,76.16
2023-04-07T13:35:23.852Z,75.85
2023-04-07T13:37:50.289Z,75.68
2023-04-07T13:40:16.729Z,75.61
2023-04-07T13:42:43.396Z,75.10
2023-04-07T13:45:09.974Z,74.97
2023-04-07T13:47:36.719Z,74.98
2023-04-07T13:50:03.987Z,75.42
2023-04-07T13:52:32.767Z,75.39
2023-04-07T13:54:59.257Z,75.00
2023-04-07T13:57:25.844Z,75.44
2023-04-07T13:59:55.694Z,75.31
2023-04-07T14:02:22.750Z,75.46
2023-04-07T14:04:49.269Z,75.79
2023-04-07T14:07:16.244Z,75.73
2023-04-07T14:09:42.851Z,75.27
2023-04-07T14:12:09.460Z,75.11
2023-04-07T14:14:37.523Z,75.50
2023-04-07T14:17:04.303Z,75.87
2023-04-07T14:19:30.819Z,76.33
2023-04-07T14:21:57.281Z,77.14
2023-04-07T14:24:23.872Z,77.44
2023-04-07T14:26:51.082Z,78.09
2023-04-07T14:29:17.730Z,78.50
2023-04-07T14:31:45.126Z,78.96
2023-04-07T14:34:11.821Z,79.21
2023-04-07T14:36:38.362Z,79.29
2023-04-07T14:39:04.786Z,79.49
2023-04-07T14:41:31.510Z,79.42
2023-04-07T14:43:58.477Z,79.05
2023-04-07T14:46:27.378Z,79.15
2023-04-07T14:51:21.907Z,79.84
2023-04-07T14:53:53.389Z,79.66
2023-04-07T14:56:21.234Z,79.63
2023-04-07T14:58:47.659Z,79.69
2023-04-07T15:01:14.085Z,79.50
2023-04-07T15:03:40.650Z,79.68
2023-04-07T15:06:08.681Z,79.55
2023-04-07T15:08:35.550Z,79.36
2023-04-07T15:11:05.649Z,79.51
2023-04-07T15:13:32.108Z,79.65
2023-04-07T15:16:11.891Z,79.67
2023-04-07T15:18:40.794Z,79.71
2023-04-07T15:21:08.776Z,79.82
2023-04-07T15:23:37.709Z,79.90
2023-04-07T15:26:05.530Z,79.97
2023-04-07T15:28:32.012Z,80.14
2023-04-07T15:30:59.254Z,80.28
2023-04-07T15:33:25.848Z,80.46
2023-04-07T15:35:52.306Z,80.57
2023-04-07T15:38:19.105Z,80.62
2023-04-07T15:40:46.109Z,80.49
2023-04-07T15:43:12.582Z,80.66
2023-04-07T15:45:43.174Z,80.74
2023-04-07T15:48:10.605Z,80.51
2023-04-07T15:50:37.294Z,79.74
2023-04-07T15:53:07.171Z,79.63
2023-04-07T15:55:34.244Z,79.22
2023-04-07T15:58:01.724Z,79.16
2023-04-07T16:00:29.623Z,78.89
2023-04-07T16:02:56.213Z,79.16
2023-04-07T16:05:22.814Z,78.91
2023-04-07T16:07:49.217Z,78.48
2023-04-07T16:10:19.479Z,78.60
2023-04-07T16:12:46.699Z,78.79
2023-04-07T16:15:13.458Z,79.10
2023-04-07T16:17:42.691Z,79.08
2023-04-07T16:20:14.555Z,79.13
2023-04-07T16:22:42.207Z,78.99
2023-04-07T16:25:09.241Z,79.05
2023-04-07T16:27:36.247Z,79.21
2023-04-07T16:30:05.374Z,79.13
2023-04-07T16:32:32.670Z,78.92
2023-04-07T16:34:59.197Z,79.33
2023-04-07T16:37:26.136Z,79.67
2023-04-07T16:39:59.026Z,79.92
2023-04-07T16:42:29.002Z,80.01
2023-04-07T16:44:57.580Z,80.16
2023-04-07T16:47:25.689Z,80.19
2023-04-07T16:49:52.113Z,80.08
2023-04-07T16:52:20.564Z,80.01
2023-04-07T16:54:47.251Z,79.89
2023-04-07T16:57:13.727Z,79.03
2023-04-07T16:59:40.702Z,78.86
2023-04-07T17:02:12.579Z,78.76
2023-04-07T17:04:39.995Z,78.83
2023-04-07T17:07:06.831Z,78.47
2023-04-07T17:09:33.403Z,78.27
2023-04-07T17:12:01.093Z,78.33
2023-04-07T17:14:28.592Z,78.17
2023-04-07T17:16:54.991Z,77.96
2023-04-07T17:19:21.682Z,77.59
2023-04-07T17:21:48.219Z,77.53
2023-04-07T17:24:15.800Z,77.45
2023-04-07T17:26:48.824Z,77.36
2023-04-07T17:29:16.501Z,77.40
2023-04-07T17:31:43.023Z,77.53
2023-04-07T17:34:10.233Z,77.47
2023-04-07T17:36:37.596Z,77.50
2023-04-07T17:39:04.923Z,77.61
2023-04-07T17:41:34.321Z,77.68
2023-04-07T17:44:01.134Z,77.67
2023-04-07T17:46:27.689Z,77.66
2023-04-07T17:48:54.945Z,78.06
2023-04-07T17:51:21.414Z,78.07
2023-04-07T17:53:48.621Z,78.33
2023-04-07T17:56:15.374Z,78.44
2023-04-07T17:58:41.842Z,78.57
2023-04-07T18:01:11.490Z,78.86
2023-04-07T18:03:38.196Z,78.72
2023-04-07T18:06:05.058Z,78.95
2023-04-07T18:08:31.611Z,78.82
2023-04-07T18:10:58.059Z,78.96
2023-04-07T18:13:24.500Z,79.08
2023-04-07T18:15:51.026Z,79.31
2023-04-07T18:18:17.515Z,79.26
2023-04-07T18:20:43.993Z,79.17
2023-04-07T18:23:10.600Z,79.53
2023-04-07T18:25:37.127Z,79.73
2023-04-07T18:28:03.956Z,79.76
2023-04-07T18:30:30.499Z,80.04
2023-04-07T18:32:57.022Z,80.06
2023-04-07T18:35:23.569Z,80.36
2023-04-07T18:37:50.298Z,80.53
2023-04-07T18:40:16.748Z,80.82
2023-04-07T18:42:43.544Z,81.09
2023-04-07T18:45:10.301Z,81.48
2023-04-07T18:47:36.950Z,81.34
2023-04-07T18:50:04.950Z,81.59
2023-04-07T18:52:31.980Z,81.43
2023-04-07T18:54:58.881Z,81.63
2023-04-07T18:57:25.286Z,81.81
2023-04-07T18:59:52.780Z,81.76
2023-04-07T19:02:19.444Z,81.75
2023-04-07T19:04:45.994Z,81.65
2023-04-07T19:07:12.438Z,81.95
2023-04-07T19:09:39.768Z,81.85
2023-04-07T19:12:06.507Z,82.02
2023-04-07T19:14:33.029Z,81.91
2023-04-07T19:16:59.552Z,82.01
2023-04-07T19:19:26.365Z,82.05
2023-04-07T19:21:52.830Z,81.89
2023-04-07T19:24:19.323Z,82.17
2023-04-07T19:26:45.885Z,81.89
2023-04-07T19:29:12.429Z,82.00
2023-04-07T19:31:39.442Z,82.11
2023-04-07T19:34:06.216Z,82.07
2023-04-07T19:36:33.750Z,81.96
2023-04-07T19:39:00.249Z,81.88
2023-04-07T19:41:26.725Z,81.92
2023-04-07T19:43:53.343Z,81.88
2023-04-07T19:46:19.939Z,81.85
2023-04-07T19:48:46.802Z,81.74
2023-04-07T19:51:13.484Z,81.56
2023-04-07T19:53:39.972Z,81.33
2023-04-07T19:56:06.423Z,81.31
2023-04-07T19:58:34.216Z,81.20
2023-04-07T20:01:00.879Z,81.20
2023-04-07T20:03:27.541Z,81.42
2023-04-07T20:05:55.253Z,81.47
2023-04-07T20:08:21.723Z,81.55
2023-04-07T20:10:51.238Z,81.44
2023-04-07T20:13:18.679Z,81.39
2023-04-07T20:15:46.293Z,81.73
2023-04-07T20:18:12.973Z,81.94
2023-04-07T20:20:39.641Z,81.94
2023-04-07T20:23:06.416Z,82.02
